Time;durP1;ratioP1;P1;durP2;ratioP2;P2;SDS_P1;SDS_P2;PMS_P1;PMS_P2;Temp;Humidity;BMP_temperature;BMP_pressure;BME280_temperature;BME280_humidity;BME280_pressure;Samples;Min_cycle;Max_cycle;Signal;HPM_P1;HPM_P2
2021/04/23 00:01:25;;;;;;;8.63;3.90;;;;;;;;;;4972971;28;20173;-41
2021/04/23 00:03:52;;;;;;;5.47;3.43;;;;;;;;;;4969901;28;20574;-41
2021/04/23 00:06:23;;;;;;;5.90;4.07;;;;;;;;;;4969811;28;20209;-42
2021/04/23 00:08:50;;;;;;;4.50;3.50;;;;;;;;;;4971777;28;20611;-42
2021/04/23 00:11:16;;;;;;;5.50;3.63;;;;;;;;;;4970384;28;20594;-42
2021/04/23 00:13:41;;;;;;;9.53;4.33;;;;;;;;;;4970263;28;20594;-43
2021/04/23 00:16:07;;;;;;;6.93;3.80;;;;;;;;;;4973200;28;20601;-42
2021/04/23 00:18:32;;;;;;;6.37;3.90;;;;;;;;;;4973498;28;20685;-42
2021/04/23 00:20:58;;;;;;;5.80;4.20;;;;;;;;;;4976817;28;20224;-42
2021/04/23 00:23:23;;;;;;;4.30;3.77;;;;;;;;;;4968797;28;20197;-42
2021/04/23 00:25:49;;;;;;;5.67;3.70;;;;;;;;;;4974399;28;20186;-42
2021/04/23 00:28:15;;;;;;;7.17;3.80;;;;;;;;;;4969305;28;20576;-42
2021/04/23 00:30:42;;;;;;;7.80;3.87;;;;;;;;;;4975191;28;20189;-41
2021/04/23 00:33:08;;;;;;;8.50;3.70;;;;;;;;;;4973675;28;20604;-42
2021/04/23 00:35:35;;;;;;;4.00;3.60;;;;;;;;;;4973319;28;20664;-41
2021/04/23 00:38:02;;;;;;;7.03;3.40;;;;;;;;;;4972182;28;20212;-43
2021/04/23 00:40:35;;;;;;;5.13;3.70;;;;;;;;;;4975622;28;20795;-41
2021/04/23 00:43:01;;;;;;;9.90;4.13;;;;;;;;;;4970275;28;20601;-42
2021/04/23 00:45:27;;;;;;;7.47;4.20;;;;;;;;;;4971091;28;20675;-42
2021/04/23 00:47:53;;;;;;;7.03;3.57;;;;;;;;;;4974501;28;20601;-42
2021/04/23 00:50:39;;;;;;;6.63;4.47;;;;;;;;;;4974446;28;20608;-42
2021/04/23 00:53:04;;;;;;;4.27;3.23;;;;;;;;;;4976151;28;20616;-42
2021/04/23 00:55:30;;;;;;;5.57;4.07;;;;;;;;;;4972261;28;20600;-43
2021/04/23 00:57:55;;;;;;;5.20;3.23;;;;;;;;;;4973757;28;20182;-43
2021/04/23 01:00:21;;;;;;;6.20;4.23;;;;;;;;;;4975363;28;20233;-43
2021/04/23 01:02:46;;;;;;;5.50;4.13;;;;;;;;;;4973777;28;20544;-43
2021/04/23 01:05:14;;;;;;;5.40;3.93;;;;;;;;;;4980820;28;20461;-42
2021/04/23 01:07:49;;;;;;;4.30;3.90;;;;;;;;;;4969167;28;20530;-42
2021/04/23 01:10:15;;;;;;;5.33;3.53;;;;;;;;;;4981502;28;20680;-43
2021/04/23 01:12:41;;;;;;;10.10;4.07;;;;;;;;;;4983246;28;20605;-40
2021/04/23 01:15:07;;;;;;;4.47;3.70;;;;;;;;;;4974771;28;20611;-42
2021/04/23 01:17:32;;;;;;;6.20;4.20;;;;;;;;;;4980207;28;20176;-41
2021/04/23 01:19:57;;;;;;;4.17;3.73;;;;;;;;;;4976486;28;20644;-42
2021/04/23 01:22:22;;;;;;;5.53;4.10;;;;;;;;;;4970208;28;20185;-42
2021/04/23 01:24:48;;;;;;;4.85;4.35;;;;;;;;;;4977387;28;20170;-42
2021/04/23 01:27:13;;;;;;;5.18;3.83;;;;;;;;;;4978509;28;20216;-42
2021/04/23 01:29:38;;;;;;;8.33;4.30;;;;;;;;;;4980782;28;20194;-41
2021/04/23 01:32:03;;;;;;;8.70;4.07;;;;;;;;;;4981223;28;20194;-44
2021/04/23 01:34:31;;;;;;;7.00;4.27;;;;;;;;;;4971969;28;20672;-42
2021/04/23 01:36:58;;;;;;;6.63;4.27;;;;;;;;;;4969875;28;20788;-42
2021/04/23 01:39:24;;;;;;;6.23;4.30;;;;;;;;;;4973749;28;21013;-42
2021/04/23 01:41:51;;;;;;;5.60;4.70;;;;;;;;;;4983101;28;20606;-42
2021/04/23 01:44:16;;;;;;;6.80;4.47;;;;;;;;;;4971818;28;20643;-43
2021/04/23 01:46:42;;;;;;;5.47;4.20;;;;;;;;;;4973101;28;20624;-42
2021/04/23 01:49:14;;;;;;;7.93;4.50;;;;;;;;;;4973825;28;20178;-43
2021/04/23 01:51:42;;;;;;;7.67;4.60;;;;;;;;;;4970437;28;20656;-42
2021/04/23 01:54:09;;;;;;;7.67;4.57;;;;;;;;;;4973614;28;21008;-42
2021/04/23 01:56:35;;;;;;;6.77;4.23;;;;;;;;;;4978679;28;20603;-42
2021/04/23 01:59:00;;;;;;;5.57;4.70;;;;;;;;;;4971412;28;20640;-41
2021/04/23 02:01:26;;;;;;;4.87;4.10;;;;;;;;;;4973290;28;20167;-42
2021/04/23 02:03:51;;;;;;;6.13;5.43;;;;;;;;;;4975947;28;20836;-42
2021/04/23 02:06:16;;;;;;;7.43;5.07;;;;;;;;;;4972119;28;20176;-42
2021/04/23 02:08:42;;;;;;;5.07;4.20;;;;;;;;;;4976643;28;20295;-42
2021/04/23 02:11:09;;;;;;;5.57;4.30;;;;;;;;;;4977544;28;20183;-42
2021/04/23 02:13:35;;;;;;;6.87;4.67;;;;;;;;;;4972807;28;20606;-41
2021/04/23 02:16:00;;;;;;;7.23;4.97;;;;;;;;;;4975715;28;20604;-41
2021/04/23 02:18:25;;;;;;;5.63;4.70;;;;;;;;;;4976883;28;20198;-41
2021/04/23 02:20:51;;;;;;;5.50;4.90;;;;;;;;;;4971658;28;20176;-41
2021/04/23 02:23:18;;;;;;;9.03;5.07;;;;;;;;;;4972620;28;20174;-41
2021/04/23 02:25:44;;;;;;;6.60;4.40;;;;;;;;;;4981810;28;20274;-41
2021/04/23 02:28:09;;;;;;;8.80;4.90;;;;;;;;;;4977238;28;20745;-41
2021/04/23 02:30:37;;;;;;;10.53;5.87;;;;;;;;;;4974402;28;20213;-40
2021/04/23 02:33:03;;;;;;;6.80;4.70;;;;;;;;;;4971659;28;20177;-40
2021/04/23 02:35:28;;;;;;;11.00;5.70;;;;;;;;;;4973764;28;20704;-41
2021/04/23 02:37:54;;;;;;;7.67;5.23;;;;;;;;;;4977772;28;20742;-42
2021/04/23 02:40:21;;;;;;;6.67;5.23;;;;;;;;;;4970768;28;20706;-41
2021/04/23 02:42:48;;;;;;;6.30;4.80;;;;;;;;;;4971233;28;20273;-44
2021/04/23 02:45:17;;;;;;;6.77;5.57;;;;;;;;;;4979551;28;20593;-42
2021/04/23 02:47:42;;;;;;;6.60;5.30;;;;;;;;;;4971181;28;21215;-41
2021/04/23 02:50:09;;;;;;;8.43;5.10;;;;;;;;;;4976276;28;20605;-41
2021/04/23 02:52:34;;;;;;;8.70;6.30;;;;;;;;;;4971911;28;20191;-42
2021/04/23 02:54:59;;;;;;;11.27;6.07;;;;;;;;;;4971326;28;20606;-42
2021/04/23 02:57:24;;;;;;;8.33;5.37;;;;;;;;;;4977186;28;20181;-42
2021/04/23 02:59:50;;;;;;;10.27;5.30;;;;;;;;;;4972070;28;20225;-41
2021/04/23 03:02:15;;;;;;;8.70;6.13;;;;;;;;;;4973342;28;20195;-41
2021/04/23 03:04:40;;;;;;;9.30;5.43;;;;;;;;;;4975109;28;20175;-42
2021/04/23 03:07:06;;;;;;;9.77;6.73;;;;;;;;;;4983261;28;20177;-42
2021/04/23 03:09:31;;;;;;;11.53;6.70;;;;;;;;;;4973864;28;20182;-42
2021/04/23 03:11:56;;;;;;;8.27;5.53;;;;;;;;;;4969497;28;20287;-42
2021/04/23 03:14:22;;;;;;;9.30;5.73;;;;;;;;;;4972200;28;20181;-42
2021/04/23 03:16:47;;;;;;;7.17;5.37;;;;;;;;;;4969133;28;20209;-41
2021/04/23 03:19:16;;;;;;;7.13;5.87;;;;;;;;;;4973489;28;20755;-46
2021/04/23 03:21:42;;;;;;;8.03;5.83;;;;;;;;;;4972638;28;20974;-42
2021/04/23 03:24:08;;;;;;;10.10;6.47;;;;;;;;;;4983559;28;20601;-42
2021/04/23 03:26:33;;;;;;;8.97;5.60;;;;;;;;;;4972504;28;20529;-41
2021/04/23 03:28:58;;;;;;;7.37;5.70;;;;;;;;;;4974063;28;20224;-42
2021/04/23 03:31:23;;;;;;;7.15;6.00;;;;;;;;;;4970359;28;20625;-42
2021/04/23 03:33:49;;;;;;;7.90;5.93;;;;;;;;;;4969588;28;20213;-42
2021/04/23 03:36:14;;;;;;;6.57;5.50;;;;;;;;;;4967612;28;20179;-41
2021/04/23 03:38:41;;;;;;;10.97;5.90;;;;;;;;;;4975430;28;20210;-41
2021/04/23 03:41:08;;;;;;;6.40;5.60;;;;;;;;;;4971073;28;20246;-41
2021/04/23 03:43:33;;;;;;;7.47;5.90;;;;;;;;;;4970877;28;20601;-41
2021/04/23 03:45:58;;;;;;;9.20;6.30;;;;;;;;;;4979579;28;20608;-41
2021/04/23 03:48:24;;;;;;;8.00;5.97;;;;;;;;;;4979162;28;20183;-42
2021/04/23 03:50:49;;;;;;;8.50;6.13;;;;;;;;;;4971023;28;20191;-43
2021/04/23 03:53:16;;;;;;;6.67;6.00;;;;;;;;;;4969711;28;20234;-43
2021/04/23 03:55:43;;;;;;;9.33;6.53;;;;;;;;;;4969487;28;20198;-42
2021/04/23 03:58:08;;;;;;;9.20;5.90;;;;;;;;;;4973786;28;21227;-43
2021/04/23 04:00:35;;;;;;;8.07;5.13;;;;;;;;;;4967638;28;20610;-42
2021/04/23 04:03:01;;;;;;;11.33;6.07;;;;;;;;;;4972142;28;20275;-42
2021/04/23 04:05:27;;;;;;;8.13;6.07;;;;;;;;;;4959551;28;21267;-42
2021/04/23 04:07:52;;;;;;;8.87;5.83;;;;;;;;;;4967996;28;20269;-42
2021/04/23 04:10:18;;;;;;;8.80;6.53;;;;;;;;;;4969690;28;20224;-41
2021/04/23 04:12:43;;;;;;;8.80;6.30;;;;;;;;;;4966174;28;20181;-41
2021/04/23 04:15:09;;;;;;;7.40;6.10;;;;;;;;;;4970690;28;20609;-41
2021/04/23 04:17:34;;;;;;;8.03;6.83;;;;;;;;;;4974072;28;20248;-41
2021/04/23 04:19:59;;;;;;;12.07;6.40;;;;;;;;;;4968694;28;20822;-41
2021/04/23 04:22:25;;;;;;;10.57;6.27;;;;;;;;;;4978086;28;20213;-41
2021/04/23 04:24:50;;;;;;;8.70;5.70;;;;;;;;;;4977461;28;20237;-42
2021/04/23 04:27:16;;;;;;;10.87;6.47;;;;;;;;;;4976362;28;20178;-41
2021/04/23 04:29:42;;;;;;;10.07;6.17;;;;;;;;;;4971952;28;20192;-41
2021/04/23 04:32:07;;;;;;;10.27;6.83;;;;;;;;;;4964661;28;20617;-41
2021/04/23 04:34:32;;;;;;;8.70;6.28;;;;;;;;;;4968858;28;20194;-42
2021/04/23 04:36:57;;;;;;;11.40;6.72;;;;;;;;;;4969741;28;20711;-43
2021/04/23 04:39:22;;;;;;;11.47;7.00;;;;;;;;;;4972186;28;20234;-42
2021/04/23 04:41:47;;;;;;;10.07;6.27;;;;;;;;;;4971175;28;20602;-41
2021/04/23 04:44:13;;;;;;;10.70;7.47;;;;;;;;;;4982300;28;20177;-42
2021/04/23 04:46:38;;;;;;;8.97;6.30;;;;;;;;;;4975707;28;20191;-42
2021/04/23 04:49:03;;;;;;;5.50;5.00;;;;;;;;;;4987218;28;20183;-41
2021/04/23 04:51:28;;;;;;;13.32;7.53;;;;;;;;;;4991706;28;20185;-41
2021/04/23 04:53:53;;;;;;;14.97;7.00;;;;;;;;;;4983332;28;20236;-42
2021/04/23 04:56:18;;;;;;;9.63;6.68;;;;;;;;;;4975772;28;20249;-40
2021/04/23 04:58:44;;;;;;;12.77;6.75;;;;;;;;;;4973744;28;20207;-41
2021/04/23 05:01:10;;;;;;;9.53;7.50;;;;;;;;;;4987840;28;20181;-42
2021/04/23 05:03:36;;;;;;;8.47;6.17;;;;;;;;;;4980237;28;20180;-42
2021/04/23 05:06:04;;;;;;;12.50;7.00;;;;;;;;;;4973411;28;20896;-42
2021/04/23 05:08:29;;;;;;;7.93;6.20;;;;;;;;;;4975184;28;20670;-42
2021/04/23 05:10:55;;;;;;;11.70;7.40;;;;;;;;;;4982708;28;20615;-43
2021/04/23 05:13:20;;;;;;;11.83;7.50;;;;;;;;;;4975703;28;20175;-42
2021/04/23 05:15:45;;;;;;;12.55;7.10;;;;;;;;;;4972028;28;20186;-42
2021/04/23 05:18:10;;;;;;;12.20;6.80;;;;;;;;;;4986594;28;20170;-42
2021/04/23 05:20:36;;;;;;;10.30;7.10;;;;;;;;;;4989993;28;20329;-42
2021/04/23 05:23:01;;;;;;;14.57;7.07;;;;;;;;;;4986145;28;20635;-42
2021/04/23 05:25:26;;;;;;;9.47;7.53;;;;;;;;;;4981559;28;20690;-42
2021/04/23 05:27:52;;;;;;;9.17;6.77;;;;;;;;;;4982802;28;20191;-42
2021/04/23 05:30:19;;;;;;;15.20;7.73;;;;;;;;;;4975713;28;20186;-42
2021/04/23 05:32:44;;;;;;;11.40;7.43;;;;;;;;;;4975339;28;20179;-43
2021/04/23 05:35:11;;;;;;;13.73;7.63;;;;;;;;;;4971468;28;20604;-42
2021/04/23 05:37:36;;;;;;;11.67;7.57;;;;;;;;;;4972375;28;20696;-42
2021/04/23 05:40:02;;;;;;;10.00;7.33;;;;;;;;;;4972336;28;20666;-41
2021/04/23 05:42:27;;;;;;;13.60;7.77;;;;;;;;;;4972078;28;20551;-41
2021/04/23 05:44:55;;;;;;;9.80;6.90;;;;;;;;;;4971623;28;20577;-42
2021/04/23 05:47:20;;;;;;;12.00;7.57;;;;;;;;;;4971819;28;20634;-42
2021/04/23 05:49:46;;;;;;;13.20;7.13;;;;;;;;;;4972290;28;20633;-42
2021/04/23 05:52:11;;;;;;;13.60;7.13;;;;;;;;;;4972115;28;20640;-42
2021/04/23 05:54:36;;;;;;;12.70;7.50;;;;;;;;;;4979707;28;20185;-43
2021/04/23 05:57:02;;;;;;;11.10;6.37;;;;;;;;;;4974741;28;20232;-41
2021/04/23 05:59:27;;;;;;;13.00;7.27;;;;;;;;;;4968564;28;20246;-42
2021/04/23 06:01:53;;;;;;;10.97;6.90;;;;;;;;;;4964101;28;20646;-42
2021/04/23 06:04:18;;;;;;;10.33;7.20;;;;;;;;;;4973944;28;20254;-42
2021/04/23 06:06:43;;;;;;;11.10;7.20;;;;;;;;;;4973138;28;20285;-42
2021/04/23 06:09:08;;;;;;;10.93;7.00;;;;;;;;;;4978291;28;20822;-42
2021/04/23 06:11:34;;;;;;;10.03;6.77;;;;;;;;;;4976269;28;20204;-42
2021/04/23 06:13:59;;;;;;;11.20;6.70;;;;;;;;;;4978721;28;20275;-42
2021/04/23 06:16:24;;;;;;;13.00;7.97;;;;;;;;;;4979436;28;20182;-42
2021/04/23 06:18:50;;;;;;;8.30;6.20;;;;;;;;;;4978963;28;20214;-43
2021/04/23 06:21:15;;;;;;;11.60;6.33;;;;;;;;;;4982288;28;20182;-41
2021/04/23 06:23:40;;;;;;;8.47;6.60;;;;;;;;;;4980892;28;20186;-43
2021/04/23 06:26:06;;;;;;;9.87;6.90;;;;;;;;;;4977231;28;20614;-43
2021/04/23 06:28:31;;;;;;;9.43;7.03;;;;;;;;;;4978341;28;20189;-43
2021/04/23 06:30:57;;;;;;;7.57;6.70;;;;;;;;;;4980679;28;20178;-41
2021/04/23 06:33:25;;;;;;;9.57;6.83;;;;;;;;;;4987828;28;20312;-42
2021/04/23 06:35:51;;;;;;;7.93;5.90;;;;;;;;;;4972640;28;20190;-43
2021/04/23 06:38:16;;;;;;;11.23;6.75;;;;;;;;;;4972605;28;20621;-43
2021/04/23 06:40:41;;;;;;;9.50;6.37;;;;;;;;;;4986879;28;20281;-42
2021/04/23 06:43:07;;;;;;;9.13;6.80;;;;;;;;;;4978475;28;20264;-45
2021/04/23 06:45:33;;;;;;;7.37;6.53;;;;;;;;;;4982613;28;20182;-43
2021/04/23 06:47:58;;;;;;;7.53;6.70;;;;;;;;;;4969741;28;20594;-42
2021/04/23 06:50:24;;;;;;;7.73;6.00;;;;;;;;;;4974904;28;20188;-42
2021/04/23 06:52:50;;;;;;;8.20;6.00;;;;;;;;;;4966929;28;20196;-42
2021/04/23 06:55:16;;;;;;;8.63;6.53;;;;;;;;;;4971729;28;20199;-43
2021/04/23 06:57:41;;;;;;;10.10;6.57;;;;;;;;;;4970373;28;21116;-43
2021/04/23 07:00:08;;;;;;;8.30;6.83;;;;;;;;;;4977370;28;20616;-42
2021/04/23 07:02:33;;;;;;;12.17;6.67;;;;;;;;;;4971327;28;20177;-42
2021/04/23 07:04:59;;;;;;;7.97;6.27;;;;;;;;;;4983190;28;20603;-44
2021/04/23 07:07:24;;;;;;;9.45;5.95;;;;;;;;;;4981211;28;20213;-42
2021/04/23 07:09:49;;;;;;;17.70;7.53;;;;;;;;;;4976337;28;20193;-42
2021/04/23 07:12:14;;;;;;;8.23;6.22;;;;;;;;;;4982152;28;20195;-41
2021/04/23 07:14:39;;;;;;;9.13;6.30;;;;;;;;;;4985183;28;20189;-42
2021/04/23 07:17:04;;;;;;;6.67;5.97;;;;;;;;;;4984469;28;20213;-43
2021/04/23 07:19:30;;;;;;;11.30;7.00;;;;;;;;;;4976191;28;20206;-40
2021/04/23 07:21:55;;;;;;;8.67;6.37;;;;;;;;;;4988667;28;20175;-41
2021/04/23 07:24:20;;;;;;;7.97;6.33;;;;;;;;;;4987681;28;20194;-41
2021/04/23 07:26:45;;;;;;;8.87;6.43;;;;;;;;;;4984349;28;20179;-42
2021/04/23 07:29:10;;;;;;;7.97;6.17;;;;;;;;;;4981513;28;20770;-42
2021/04/23 07:31:36;;;;;;;9.50;6.85;;;;;;;;;;4973398;28;20175;-42
2021/04/23 07:34:01;;;;;;;12.00;6.33;;;;;;;;;;4976902;28;20206;-42
2021/04/23 07:36:26;;;;;;;14.13;7.10;;;;;;;;;;4977162;28;20332;-41
2021/04/23 07:38:51;;;;;;;9.40;6.43;;;;;;;;;;4973770;28;20208;-42
2021/04/23 07:41:17;;;;;;;9.07;6.70;;;;;;;;;;4984192;28;20183;-42
2021/04/23 07:43:42;;;;;;;8.53;6.70;;;;;;;;;;4977905;28;20258;-42
2021/04/23 07:46:07;;;;;;;7.73;5.97;;;;;;;;;;4975251;28;20233;-42
2021/04/23 07:48:32;;;;;;;9.32;5.97;;;;;;;;;;4972209;28;20208;-42
2021/04/23 07:50:58;;;;;;;8.10;6.20;;;;;;;;;;4975797;28;20184;-42
2021/04/23 07:53:23;;;;;;;11.23;6.40;;;;;;;;;;4977432;28;20605;-41
2021/04/23 07:55:48;;;;;;;9.60;6.57;;;;;;;;;;4982747;28;20183;-42
2021/04/23 07:58:14;;;;;;;6.73;5.27;;;;;;;;;;4973176;28;20200;-42
2021/04/23 08:00:39;;;;;;;7.73;5.80;;;;;;;;;;4973908;28;20215;-46
2021/04/23 08:03:05;;;;;;;7.27;5.97;;;;;;;;;;4966549;28;20193;-42
2021/04/23 08:05:30;;;;;;;7.30;5.30;;;;;;;;;;4973290;28;20631;-42
2021/04/23 08:07:55;;;;;;;7.30;5.00;;;;;;;;;;4965947;28;20224;-42
2021/04/23 08:10:21;;;;;;;10.03;5.93;;;;;;;;;;4970231;28;20180;-41
2021/04/23 08:12:47;;;;;;;7.50;5.37;;;;;;;;;;4967823;28;20178;-42
2021/04/23 08:15:12;;;;;;;9.70;5.60;;;;;;;;;;4977470;28;20176;-42
2021/04/23 08:17:38;;;;;;;5.70;4.73;;;;;;;;;;4976839;28;20716;-42
2021/04/23 08:20:04;;;;;;;6.03;5.10;;;;;;;;;;4979573;28;20216;-42
2021/04/23 08:22:29;;;;;;;6.23;4.90;;;;;;;;;;4970648;28;20589;-42
2021/04/23 08:24:54;;;;;;;7.50;5.13;;;;;;;;;;4979065;28;21136;-42
2021/04/23 08:27:19;;;;;;;6.25;4.65;;;;;;;;;;4972680;28;20183;-41
2021/04/23 08:29:45;;;;;;;8.00;4.70;;;;;;;;;;4972589;28;20345;-41
2021/04/23 08:32:10;;;;;;;7.87;4.10;;;;;;;;;;4975790;28;20188;-42
2021/04/23 08:34:35;;;;;;;5.78;4.63;;;;;;;;;;4974717;28;20191;-42
2021/04/23 08:37:00;;;;;;;4.07;3.50;;;;;;;;;;4977363;28;20212;-41
2021/04/23 08:39:25;;;;;;;4.33;3.93;;;;;;;;;;4969650;28;20247;-41
2021/04/23 08:41:51;;;;;;;5.43;4.10;;;;;;;;;;4969216;28;20203;-41
2021/04/23 08:44:16;;;;;;;5.57;4.03;;;;;;;;;;4972340;28;20616;-42
2021/04/23 08:46:41;;;;;;;4.65;4.15;;;;;;;;;;4989678;28;20179;-42
2021/04/23 08:49:07;;;;;;;4.82;4.07;;;;;;;;;;4973673;28;20184;-41
2021/04/23 08:51:33;;;;;;;4.90;3.73;;;;;;;;;;4973209;28;20655;-42
2021/04/23 08:53:58;;;;;;;6.20;3.73;;;;;;;;;;4972842;28;20756;-42
2021/04/23 08:56:24;;;;;;;7.17;4.03;;;;;;;;;;4986595;28;20706;-42
2021/04/23 08:58:49;;;;;;;5.33;3.90;;;;;;;;;;4975827;28;20218;-42
2021/04/23 09:01:36;;;;;;;6.93;4.47;;;;;;;;;;4983473;28;20195;-42
2021/04/23 09:04:00;;;;;;;5.13;3.90;;;;;;;;;;4959614;28;20191;-42
2021/04/23 09:06:26;;;;;;;6.47;3.92;;;;;;;;;;4970328;28;20602;-42
2021/04/23 09:08:52;;;;;;;4.83;3.40;;;;;;;;;;4968864;28;20183;-42
2021/04/23 09:11:23;;;;;;;10.82;4.30;;;;;;;;;;4976480;28;20608;-42
2021/04/23 09:13:49;;;;;;;4.90;3.60;;;;;;;;;;4965014;28;20671;-42
2021/04/23 09:16:14;;;;;;;5.00;4.00;;;;;;;;;;4973689;28;20591;-42
2021/04/23 09:18:39;;;;;;;6.13;3.90;;;;;;;;;;4973767;28;20264;-43
2021/04/23 09:21:05;;;;;;;7.65;4.13;;;;;;;;;;4974311;28;20172;-42
2021/04/23 09:23:30;;;;;;;5.03;4.57;;;;;;;;;;4975326;28;20534;-42
2021/04/23 09:25:57;;;;;;;5.53;3.90;;;;;;;;;;4985863;28;20259;-42
2021/04/23 09:28:33;;;;;;;7.40;5.10;;;;;;;;;;4966251;28;20182;-41
2021/04/23 09:31:18;;;;;;;5.00;3.53;;;;;;;;;;4972153;28;20940;-41
2021/04/23 09:33:55;;;;;;;7.07;4.10;;;;;;;;;;4968929;28;20589;-43
2021/04/23 09:36:24;;;;;;;4.90;4.20;;;;;;;;;;4972567;28;20596;-43
2021/04/23 09:39:01;;;;;;;6.30;4.17;;;;;;;;;;4972514;28;20639;-43
2021/04/23 09:41:26;;;;;;;5.60;4.50;;;;;;;;;;4973145;28;21387;-42
2021/04/23 09:43:52;;;;;;;5.43;4.35;;;;;;;;;;4970391;28;20972;-43
2021/04/23 09:46:30;;;;;;;4.43;3.70;;;;;;;;;;4972653;28;20596;-42
2021/04/23 09:49:13;;;;;;;5.87;3.80;;;;;;;;;;4973086;28;20189;-43
2021/04/23 09:51:38;;;;;;;4.70;4.30;;;;;;;;;;4958881;28;20662;-42
2021/04/23 09:54:14;;;;;;;4.30;3.90;;;;;;;;;;4980225;28;21338;-42
2021/04/23 09:56:39;;;;;;;6.57;4.27;;;;;;;;;;4971122;28;20186;-41
2021/04/23 09:59:19;;;;;;;5.87;3.80;;;;;;;;;;4984233;28;20635;-43
2021/04/23 10:01:51;;;;;;;4.73;3.77;;;;;;;;;;4985767;28;20175;-46
2021/04/23 10:04:28;;;;;;;8.20;4.60;;;;;;;;;;4988195;28;20599;-42
2021/04/23 10:07:06;;;;;;;6.17;4.23;;;;;;;;;;4989572;28;20610;-42
2021/04/23 10:09:32;;;;;;;5.97;4.53;;;;;;;;;;4974867;28;20615;-42
2021/04/23 10:11:57;;;;;;;5.33;4.93;;;;;;;;;;4972458;28;20650;-50
2021/04/23 10:14:22;;;;;;;4.97;4.40;;;;;;;;;;4970428;28;20180;-43
2021/04/23 10:16:47;;;;;;;5.05;4.57;;;;;;;;;;4972159;28;20173;-42
2021/04/23 10:19:12;;;;;;;6.40;4.60;;;;;;;;;;4972240;28;20202;-42
2021/04/23 10:21:38;;;;;;;8.52;4.35;;;;;;;;;;4971387;28;20712;-43
2021/04/23 10:24:03;;;;;;;5.23;4.20;;;;;;;;;;4970069;28;20199;-43
2021/04/23 10:26:28;;;;;;;5.40;4.90;;;;;;;;;;4972154;28;20207;-42
2021/04/23 10:28:54;;;;;;;6.53;5.50;;;;;;;;;;4975751;28;20572;-42
2021/04/23 10:31:35;;;;;;;;;;;;;;;;;;;;;
2021/04/23 10:34:01;;;;;;;5.63;4.90;;;;;;;;;;4974432;28;20185;-43
2021/04/23 10:36:29;;;;;;;6.17;5.23;;;;;;;;;;4976334;28;20704;-43
2021/04/23 10:38:55;;;;;;;6.67;5.23;;;;;;;;;;4979202;28;20201;-42
2021/04/23 10:41:20;;;;;;;6.97;4.60;;;;;;;;;;4980370;28;20597;-42
2021/04/23 10:43:51;;;;;;;5.28;4.43;;;;;;;;;;4975511;28;20183;-42
2021/04/23 10:46:17;;;;;;;4.30;3.83;;;;;;;;;;4973132;28;20186;-42
2021/04/23 10:48:43;;;;;;;6.00;4.20;;;;;;;;;;4981703;28;20606;-42
2021/04/23 10:51:17;;;;;;;4.60;3.97;;;;;;;;;;4973960;28;20602;-43
2021/04/23 10:53:44;;;;;;;5.30;4.50;;;;;;;;;;4971324;28;20625;-43
2021/04/23 10:56:29;;;;;;;7.10;4.77;;;;;;;;;;4978331;28;21198;-41
2021/04/23 10:58:55;;;;;;;7.53;4.53;;;;;;;;;;4976912;28;20744;-42
2021/04/23 11:01:23;;;;;;;5.60;4.23;;;;;;;;;;4971213;28;20601;-41
2021/04/23 11:04:00;;;;;;;5.20;4.37;;;;;;;;;;4968957;28;20612;-41
2021/04/23 11:06:27;;;;;;;6.73;4.20;;;;;;;;;;4978962;28;21146;-41
2021/04/23 11:08:58;;;;;;;6.50;4.20;;;;;;;;;;4978206;28;20622;-41
2021/04/23 11:11:23;;;;;;;5.37;4.87;;;;;;;;;;4983740;28;20739;-42
2021/04/23 11:13:50;;;;;;;6.00;4.70;;;;;;;;;;4973964;28;20596;-42
2021/04/23 11:16:16;;;;;;;6.20;4.90;;;;;;;;;;4976555;28;20193;-41
2021/04/23 11:18:41;;;;;;;8.85;5.38;;;;;;;;;;4976992;28;20668;-42
2021/04/23 11:21:25;;;;;;;7.13;5.37;;;;;;;;;;4984626;28;20185;-41
2021/04/23 11:24:09;;;;;;;7.30;5.70;;;;;;;;;;4975409;28;20641;-41
2021/04/23 11:26:56;;;;;;;9.73;5.13;;;;;;;;;;4951665;29;20586;-41
2021/04/23 11:29:26;;;;;;;6.30;5.70;;;;;;;;;;4968378;28;21188;-42
2021/04/23 11:32:10;;;;;;;12.00;6.77;;;;;;;;;;4969900;28;20564;-42
2021/04/23 11:34:42;;;;;;;9.80;5.60;;;;;;;;;;4968690;28;20684;-42
2021/04/23 11:37:17;;;;;;;6.03;5.13;;;;;;;;;;4969929;28;20651;-42
2021/04/23 11:39:44;;;;;;;10.27;6.60;;;;;;;;;;4970505;28;20672;-42
2021/04/23 11:42:11;;;;;;;7.50;5.57;;;;;;;;;;4972155;28;20610;-43
2021/04/23 11:44:45;;;;;;;6.53;5.93;;;;;;;;;;4984161;28;20666;-42
2021/04/23 11:47:10;;;;;;;8.23;5.83;;;;;;;;;;4987766;28;20691;-46
2021/04/23 11:49:35;;;;;;;7.33;6.10;;;;;;;;;;4987938;28;20681;-42
2021/04/23 11:52:01;;;;;;;9.20;6.30;;;;;;;;;;4987777;28;20671;-48
2021/04/23 11:54:30;;;;;;;6.67;5.97;;;;;;;;;;4974941;28;20178;-42
2021/04/23 11:56:55;;;;;;;8.13;6.67;;;;;;;;;;4987939;28;20492;-42
2021/04/23 11:59:21;;;;;;;9.63;6.90;;;;;;;;;;4972950;28;20659;-41
2021/04/23 12:01:46;;;;;;;8.83;6.50;;;;;;;;;;4976632;28;20472;-42
2021/04/23 12:04:11;;;;;;;8.35;6.50;;;;;;;;;;4973673;28;20245;-42
2021/04/23 12:06:36;;;;;;;7.63;5.90;;;;;;;;;;4971749;28;20187;-42
2021/04/23 12:09:14;;;;;;;7.20;6.03;;;;;;;;;;4979552;28;20181;-42
2021/04/23 12:11:39;;;;;;;7.20;6.50;;;;;;;;;;4987808;28;20182;-42
2021/04/23 12:14:04;;;;;;;7.28;6.57;;;;;;;;;;4971817;28;20697;-41
2021/04/23 12:16:29;;;;;;;7.95;6.43;;;;;;;;;;4971644;28;20544;-42
2021/04/23 12:18:56;;;;;;;7.40;6.70;;;;;;;;;;4968464;28;20265;-41
2021/04/23 12:21:21;;;;;;;9.47;6.93;;;;;;;;;;4977681;28;20193;-42
2021/04/23 12:23:46;;;;;;;8.90;6.80;;;;;;;;;;4972851;28;20693;-41
2021/04/23 12:26:13;;;;;;;8.03;7.23;;;;;;;;;;4971082;28;20174;-42
2021/04/23 12:28:41;;;;;;;7.27;6.00;;;;;;;;;;4971799;28;20182;-41
2021/04/23 12:31:18;;;;;;;7.13;6.43;;;;;;;;;;4976625;28;20605;-42
2021/04/23 12:33:55;;;;;;;7.63;6.53;;;;;;;;;;4987701;28;20592;-41
2021/04/23 12:36:23;;;;;;;6.90;6.20;;;;;;;;;;4976123;28;20590;-41
2021/04/23 12:38:53;;;;;;;7.63;6.93;;;;;;;;;;4977675;28;20656;-42
2021/04/23 12:41:29;;;;;;;7.83;6.00;;;;;;;;;;4974255;28;20762;-43
2021/04/23 12:43:55;;;;;;;11.10;7.07;;;;;;;;;;4971589;28;20609;-46
2021/04/23 12:46:22;;;;;;;7.10;6.50;;;;;;;;;;4992434;28;20612;-42
2021/04/23 12:49:02;;;;;;;8.43;6.90;;;;;;;;;;4987524;28;20710;-41
2021/04/23 12:51:28;;;;;;;10.17;6.60;;;;;;;;;;4977337;28;20708;-42
2021/04/23 12:53:54;;;;;;;9.30;6.43;;;;;;;;;;4986459;28;20692;-42
2021/04/23 12:56:23;;;;;;;8.00;7.00;;;;;;;;;;4974054;28;20201;-42
2021/04/23 12:58:48;;;;;;;9.57;7.50;;;;;;;;;;4972555;28;20653;-42
2021/04/23 13:01:13;;;;;;;11.33;7.33;;;;;;;;;;4986972;28;20601;-43
2021/04/23 13:03:38;;;;;;;8.10;7.13;;;;;;;;;;4975275;28;20682;-42
2021/04/23 13:06:03;;;;;;;11.53;7.10;;;;;;;;;;4976263;28;20171;-42
2021/04/23 13:08:29;;;;;;;9.10;6.90;;;;;;;;;;4971817;28;20547;-42
2021/04/23 13:10:56;;;;;;;8.60;6.30;;;;;;;;;;4984857;28;20178;-42
2021/04/23 13:13:21;;;;;;;7.33;6.47;;;;;;;;;;4976824;28;20281;-42
2021/04/23 13:15:48;;;;;;;10.43;7.13;;;;;;;;;;4979081;28;20688;-43
2021/04/23 13:18:29;;;;;;;7.63;6.00;;;;;;;;;;4982095;28;20226;-43
2021/04/23 13:21:03;;;;;;;8.40;7.53;;;;;;;;;;4984391;28;20601;-43
2021/04/23 13:23:29;;;;;;;7.77;7.00;;;;;;;;;;4978675;28;20695;-41
2021/04/23 13:25:54;;;;;;;8.93;6.90;;;;;;;;;;4977171;28;20594;-42
2021/04/23 13:28:20;;;;;;;10.63;7.10;;;;;;;;;;4978572;28;20601;-42
2021/04/23 13:30:59;;;;;;;8.00;7.20;;;;;;;;;;4984042;28;20178;-42
2021/04/23 13:33:27;;;;;;;9.27;7.37;;;;;;;;;;4954160;28;20192;-41
2021/04/23 13:35:53;;;;;;;9.93;7.57;;;;;;;;;;4985634;28;20692;-41
2021/04/23 13:38:20;;;;;;;10.30;7.47;;;;;;;;;;4979461;28;20716;-42
2021/04/23 13:40:46;;;;;;;10.70;8.57;;;;;;;;;;4975220;28;20774;-42
2021/04/23 13:43:12;;;;;;;8.30;7.50;;;;;;;;;;4978657;28;21429;-41
2021/04/23 13:45:37;;;;;;;10.83;8.50;;;;;;;;;;4972001;28;20656;-42
2021/04/23 13:48:16;;;;;;;11.10;9.30;;;;;;;;;;4975451;28;20602;-42
2021/04/23 13:50:41;;;;;;;11.37;8.77;;;;;;;;;;4974775;28;20557;-44
2021/04/23 13:53:06;;;;;;;9.60;8.30;;;;;;;;;;4971316;28;20616;-42
2021/04/23 13:55:32;;;;;;;11.17;8.87;;;;;;;;;;4966788;28;20274;-42
2021/04/23 13:57:59;;;;;;;9.73;8.73;;;;;;;;;;4972641;28;20198;-41
2021/04/23 14:00:24;;;;;;;11.00;8.40;;;;;;;;;;4988461;28;20644;-42
2021/04/23 14:02:57;;;;;;;9.87;8.87;;;;;;;;;;4974470;28;20605;-42
2021/04/23 14:05:23;;;;;;;10.70;9.10;;;;;;;;;;4984165;28;20180;-42
2021/04/23 14:07:48;;;;;;;9.90;8.10;;;;;;;;;;4983491;28;20589;-42
2021/04/23 14:10:13;;;;;;;9.63;8.73;;;;;;;;;;4987173;28;20186;-43
2021/04/23 14:12:38;;;;;;;9.70;8.80;;;;;;;;;;4981422;28;20287;-43
2021/04/23 14:15:04;;;;;;;9.25;8.35;;;;;;;;;;4974085;28;20653;-42
2021/04/23 14:17:31;;;;;;;13.30;9.03;;;;;;;;;;4972758;28;20189;-42
2021/04/23 14:19:56;;;;;;;9.00;8.20;;;;;;;;;;4983499;28;20197;-43
2021/04/23 14:22:22;;;;;;;9.40;7.45;;;;;;;;;;4975253;28;20680;-43
2021/04/23 14:24:48;;;;;;;11.53;8.07;;;;;;;;;;4973676;28;20189;-43
2021/04/23 14:27:13;;;;;;;8.83;6.77;;;;;;;;;;4971430;28;20249;-42
2021/04/23 14:29:38;;;;;;;8.40;7.60;;;;;;;;;;4968286;28;20693;-43
2021/04/23 14:32:04;;;;;;;8.47;7.67;;;;;;;;;;4981952;28;20209;-42
2021/04/23 14:34:29;;;;;;;8.90;7.67;;;;;;;;;;4987518;28;20190;-42
2021/04/23 14:36:54;;;;;;;8.70;7.80;;;;;;;;;;4979046;28;20203;-43
2021/04/23 14:39:20;;;;;;;7.93;7.10;;;;;;;;;;4970564;28;20362;-41